Falmouth, MA (02540)

12:22 PM EDT on October 24, 2014 (GMT -0400)
E. Falmouth, Barnstable County, MA, USA | Change Station
CLOSE
Current Station
Personal Weather Station
Location: East Falmouth, MA
Elevation: 74 ft
Nearby Weather Stations

Elev 74 ft 41.59 °N, 70.60 °W | Updated 2 seconds ago

Overcast
Overcast
52.9 °F
Feels Like 52.9 °F
N
0.0
Wind Variable Wind from North
Gusts 0.0 mph

Today
High -- | Low -- °F
--% Chance of Precip.
Yesterday
High -- | Low -- °F
Precip. -- in
7:04 AM 5:47 PM
New Moon, 1% visible
Pressure 29.68 in
Visibility 10.0 miles
Clouds Mostly Cloudy 1300 ft
Overcast 2200 ft
Dew Point 50 °F
Humidity 90%
Rainfall 0.02 in
Snow Depth Not available.
UV 1 out of 12
Pollen .10 out of 12
Ozone Good
Flu Activity No Activity
METAR KFMH 241615Z AUTO 36012G22KT 10SM BKN013 OVC022 11/09 A2968 RMK AO2

More Conditions Fewer Conditions

Pressure 29.68 in
Visibility 10.0 miles
Clouds Mostly Cloudy 1300 ft
Overcast 2200 ft
Dew Point 50 °F
Humidity 90%
Rainfall 0.02 in
Snow Depth Not available.
UV 1 out of 12
Pollen .10 out of 12
Ozone Good
Flu Activity No Activity
METAR KFMH 241615Z AUTO 36012G22KT 10SM BKN013 OVC022 11/09 A2968 RMK AO2

More Conditions Fewer Conditions

10-Day Weather Forecast

Almanac

Astronomy

Oct. 24, 2014 Rise Set
Actual Time 7:04 AM EDT 5:47 PM EDT
Civil Twilight 6:36 AM EDT 6:16 PM EDT
Nautical Twilight 6:04 AM EDT 6:48 PM EDT
Astronomical Twilight 5:31 AM EDT 7:20 PM EDT
Moon 7:41 AM EDT 6:25 PM EDT
Length of Visible Light 11h 39m
Length of Day
10h 43m
Tomorrow will be 2m 35s shorter.
New Moon, 1% of the Moon is Illuminated
Today
New Moon
Oct 30
First Quarter
Nov 6
Full
Nov 14
Last Quarter
Nov 22
New

Today's Extremes

State Highs State Lows

Community

WunderPhotos

Upload Photos

1,764,603 photos uploaded!

WunderBlogs® & News

By Dr. Jeff Masters
Director of Meteorology, Weather Underground
By Kari Strenfel
Meteorologist, Weather Underground
By Christopher C. Burt
Weather Historian, Weather Underground
October 24, 2014
October 24, 2014
October 24, 2014

Nearby

Air Quality

  Air Quality AQ Index Pollutant
Yesterday Good
OZONE
Current Good
OZONE
Friday Good
PM2.5
Friday Good
OZONE

Snow Depth

Station Depth Elevation
No new snow has been reported.

Earthquake Activity

City Distance Mag. Time & Date
No recent earthquake activity has been reported nearby.
Minimum magnitude displayed is 2.5.

Coastal Water Temperatures

Place Temperature
Woods Hole, MA 61.0 °F
Fall River, MA 61.0 °F
Newport, RI 60.1 °F

Nearby Weather Stations